Impacts TAF Board
For situational awareness. Not to be used for flight planning purposes.
IDs:

KCNY - Moab/Canyonland Fld, UT, US

Issued at 1720 UTC 02 Aug 2021
Updated at 2218 UTC 02 Aug 2021
Potential Impact None Slight Moderate High
Time2153Z 02/23Z 03/00Z 03/01Z 03/02Z 03/03Z 03/04Z 03/05Z 03/06Z 03/07Z 03/08Z 03/09Z 03/10Z 03/11Z>>
Type OBS PRVL PRVL PRVL PRVL PRVL PRVL PRVL PRVL PRVL PRVL PRVL PRVL PRVL
VIS 10 >6 >6 >6 >6 >6 >6 >6 >6 >6 >6 >6 >6 >6
CIG -- 100 100 -- -- -- -- -- -- -- -- -- -- --
Cover CLR BKN BKN SCT SCT SCT SCT SCT SCT SCT SCT SCT SCT SCT
FltCat VFR VFR VFR VFR VFR VFR VFR VFR VFR VFR VFR VFR VFR VFR
WX -- VCTS VCTS -- -- -- -- -- -- -- -- -- -- --
WDir 260 270 270 300 300 330 330 330 330 330 330 330 330 330
WSpd 6 5 5 10 10 6 6 6 6 6 6 6 6 6
WGst 16 -- -- -- -- -- -- -- -- -- -- -- -- --
Raw TAF
KCNY 021720Z 0218/0318 26004KT P6SM SKC
  FM021900 27005KT P6SM VCTS SCT080CB BKN100
  FM030100 30010KT P6SM SCT100
  FM030300 33006KT P6SM SCT100
  FM031200 VRB03KT P6SM BKN250


Raw METAR
KCNY 022153Z AUTO 26006G16KT 10SM CLR 29/12 A3018 RMK AO2 LTG DSNT N SLP161 T02940122
KCNY 022053Z AUTO 30007KT 10SM CLR 28/14 A3020 RMK AO2 SLP172 T02830139 56027
KCNY 021953Z AUTO VRB04KT 10SM CLR 27/16 A3023 RMK AO2 SLP182 T02720156

METAR Board
Radar Display
Forecast Discussion
For situational awareness. Not to be used for flight planning purposes.